CheckWX is a tool to help pilots better visualize weather data.  It is not intended as a substitute for an official pre-flight weather briefing.

15:56:56 UTC

KICT METAR
Wichita Dwight D Eisenhower National Airport
Wichita, Kansas, USA
Current

1 hour ago

KICT 221453Z 17005KT 10SM -RA FEW020 SCT060 BKN120 BKN160 OVC200 22/19 A2998 RMK AO2 SLP140 LTG AND CB DSIPTD P0002 60003 T02170194 58007
Observed
Aug-22 @ 14:53 UTC
Wind
  • 170° at 5 KTS
Visibility
10 SM
Flight Rules
VFR
Conditions
Light Rain
Cloud Levels
  • Few at 2,000' AGL
  • Scattered at 6,000' AGL
  • Broken at 12,000' AGL
  • Broken at 16,000' AGL
Temperature
22°C / 72°F
Dewpoint
19°C / 66°F
Humidity
83%
Altimeter
29.98" Hg
Pressure
1015.22 hPa
Current Rain
0.02"
Previous

2 hours ago

KICT 221353Z 16003KT 10SM -RA FEW010 SCT075 BKN100 BKN150 OVC200 21/19 A3000 RMK AO2 LTG DSNT W RAE02B36 SLP148 OCNL LTGICCG DSNT SE-W CB DSNT SE-W MOVG E P0000 T02110189
Observed
Aug-22 @ 13:53 UTC
Wind
  • 160° at 3 KTS
Visibility
10 SM
Flight Rules
VFR
Conditions
Light Rain
Cloud Levels
  • Few at 1,000' AGL
  • Scattered at 7,500' AGL
  • Broken at 10,000' AGL
  • Broken at 15,000' AGL
Temperature
21°C / 70°F
Dewpoint
19°C / 66°F
Humidity
88%
Altimeter
30" Hg
Pressure
1015.92 hPa
Current Rain
0.01"
Previous

3 hours ago

KICT 221322Z 00000KT 10SM BKN010 OVC100 21/19 A3001 RMK AO2 LTG DSNT W RAE02 OCNL LTGICCG DSNT SE-W CB DSNT SE-W MOVG E P0000 T02060189
Observed
Aug-22 @ 13:22 UTC
Visibility
10 SM
Flight Rules
MVFR
Cloud Levels
  • Broken at 1,000' AGL
  • Overcast at 10,000' AGL
Temperature
21°C / 70°F
Dewpoint
19°C / 66°F
Humidity
88%
Altimeter
30.01" Hg
Pressure
1016.22 hPa
Current Rain
0.01"